createdAt,value
2019-05-02T00:00:30.465Z,78
2019-05-02T00:05:52.042Z,79
2019-05-02T00:11:08.412Z,79
2019-05-02T00:16:28.614Z,80
2019-05-02T00:21:45.016Z,79
2019-05-02T00:27:06.259Z,79
2019-05-02T00:32:26.067Z,79
2019-05-02T00:37:46.601Z,79
2019-05-02T00:43:08.043Z,79
2019-05-02T00:48:25.321Z,79
2019-05-02T00:53:49.516Z,80
2019-05-02T00:59:09.803Z,80
2019-05-02T01:04:30.143Z,80
2019-05-02T01:09:49.068Z,80
2019-05-02T01:15:10.713Z,80
2019-05-02T01:20:30.311Z,81
2019-05-02T01:25:55.071Z,81
2019-05-02T01:31:18.278Z,81
2019-05-02T01:36:43.267Z,80
2019-05-02T01:42:05.876Z,80
2019-05-02T01:47:20.766Z,80
2019-05-02T01:52:37.908Z,80
2019-05-02T01:58:00.111Z,80
2019-05-02T02:03:15.759Z,80
2019-05-02T02:08:34.966Z,80
2019-05-02T02:13:58.779Z,81
2019-05-02T02:19:15.514Z,81
2019-05-02T02:24:31.645Z,81
2019-05-02T02:29:47.226Z,81
2019-05-02T02:35:13.220Z,81
2019-05-02T02:40:36.717Z,82
2019-05-02T02:46:00.476Z,82
2019-05-02T02:51:26.957Z,82
2019-05-02T02:56:43.787Z,82
2019-05-02T03:02:13.023Z,82
2019-05-02T03:07:30.428Z,82
2019-05-02T03:12:54.173Z,82
2019-05-02T03:18:11.358Z,82
2019-05-02T03:23:27.272Z,82
2019-05-02T03:28:44.096Z,82
2019-05-02T03:34:04.787Z,82
2019-05-02T03:39:20.073Z,81
2019-05-02T03:44:37.368Z,81
2019-05-02T03:49:55.037Z,81
2019-05-02T03:55:12.229Z,81
2019-05-02T04:00:29.704Z,82
2019-05-02T04:05:46.162Z,83
2019-05-02T04:11:03.201Z,83
2019-05-02T04:16:20.254Z,84
2019-05-02T04:21:39.683Z,84
2019-05-02T04:27:00.496Z,83
2019-05-02T04:32:15.943Z,83
2019-05-02T04:37:44.775Z,83
2019-05-02T04:43:12.227Z,83
2019-05-02T04:48:49.610Z,83
2019-05-02T04:54:31.485Z,83
2019-05-02T05:00:12.107Z,83
2019-05-02T05:05:32.162Z,83
2019-05-02T05:10:48.372Z,83
2019-05-02T05:16:19.544Z,79
2019-05-02T05:21:37.287Z,74
2019-05-02T05:27:01.563Z,70
2019-05-02T05:32:23.327Z,66
2019-05-02T05:37:53.721Z,64
2019-05-02T05:43:21.047Z,63
2019-05-02T06:14:48.048Z,60
2019-05-02T06:46:30.675Z,61
2019-05-02T06:51:44.560Z,62
2019-05-02T06:57:00.189Z,61
2019-05-02T07:02:16.424Z,62
2019-05-02T07:07:38.870Z,63
2019-05-02T07:13:15.686Z,62
2019-05-02T07:18:35.046Z,62
2019-05-02T07:23:57.743Z,61
2019-05-02T07:29:21.765Z,60
2019-05-02T07:34:37.416Z,60
2019-05-02T07:39:53.252Z,59
2019-05-02T07:45:11.733Z,59
2019-05-02T07:50:28.254Z,61
2019-05-02T07:55:44.897Z,60
2019-05-02T08:01:16.213Z,60
2019-05-02T08:06:46.558Z,59
2019-05-02T08:12:04.074Z,58
2019-05-02T08:17:21.338Z,60
2019-05-02T08:22:51.041Z,59
2019-05-02T08:28:18.638Z,56
2019-05-02T08:33:37.065Z,57
2019-05-02T08:38:57.662Z,56
2019-05-02T08:44:19.090Z,55
2019-05-02T08:49:35.080Z,53
2019-05-02T08:54:50.451Z,53
2019-05-02T09:00:06.803Z,52
2019-05-02T09:05:26.505Z,52
2019-05-02T09:10:44.696Z,51
2019-05-02T09:16:07.289Z,52
2019-05-02T09:21:36.020Z,50
2019-05-02T09:26:49.436Z,50
2019-05-02T09:32:07.091Z,50
2019-05-02T09:37:24.250Z,48
2019-05-02T09:43:04.591Z,48
2019-05-02T09:48:27.820Z,47
2019-05-02T09:53:46.123Z,47
2019-05-02T09:59:33.465Z,47
2019-05-02T10:04:48.386Z,49
2019-05-02T10:15:23.632Z,47
2019-05-02T10:20:42.312Z,46
2019-05-02T10:26:04.888Z,44
2019-05-02T10:47:05.296Z,47
2019-05-02T11:02:53.858Z,46
2019-05-02T11:08:13.433Z,46
2019-05-02T11:13:29.503Z,47
2019-05-02T11:18:53.315Z,46
2019-05-02T11:24:11.396Z,46
2019-05-02T11:29:27.892Z,45
2019-05-02T11:40:09.052Z,44
2019-05-02T11:45:27.952Z,43
2019-05-02T11:56:13.358Z,43
2019-05-02T12:01:56.140Z,43
2019-05-02T12:07:09.767Z,41
2019-05-02T13:10:13.170Z,43
2019-05-02T13:15:29.709Z,43
2019-05-02T13:20:45.456Z,43
2019-05-02T13:26:24.799Z,42
2019-05-02T13:31:43.187Z,41
2019-05-02T13:37:04.155Z,37
2019-05-02T13:42:22.942Z,36
2019-05-02T13:47:40.174Z,35
2019-05-02T17:23:08.641Z,41
2019-05-02T17:44:24.733Z,44
2019-05-02T17:49:39.393Z,44
2019-05-02T18:00:17.823Z,45
2019-05-02T18:05:44.602Z,46
2019-05-02T18:11:03.878Z,47
2019-05-02T18:16:24.934Z,47
2019-05-02T18:21:39.626Z,48
2019-05-02T18:27:03.515Z,49
2019-05-02T18:32:26.958Z,49
2019-05-02T18:37:47.816Z,49
2019-05-02T18:43:06.625Z,49
2019-05-02T18:48:23.295Z,49
2019-05-02T18:53:43.754Z,49
2019-05-02T18:58:59.095Z,49
2019-05-02T19:04:14.603Z,49
2019-05-02T19:09:34.389Z,50
2019-05-02T19:15:03.011Z,50
2019-05-02T19:20:23.519Z,51
2019-05-02T19:25:43.753Z,51
2019-05-02T19:31:08.441Z,52
2019-05-02T19:36:29.112Z,53
2019-05-02T19:41:46.652Z,53
2019-05-02T19:47:02.964Z,53
2019-05-02T19:52:18.359Z,53
2019-05-02T19:57:33.789Z,54
2019-05-02T20:02:48.673Z,54
2019-05-02T20:08:05.049Z,54
2019-05-02T20:13:32.810Z,55
2019-05-02T20:18:48.642Z,55
2019-05-02T20:24:20.008Z,56
2019-05-02T20:29:34.754Z,56
2019-05-02T20:34:49.287Z,56
2019-05-02T20:40:04.272Z,56
2019-05-02T20:45:18.771Z,57
2019-05-02T20:50:33.283Z,57
2019-05-02T20:55:49.468Z,58
2019-05-02T21:01:12.154Z,58
2019-05-02T21:06:44.771Z,58
2019-05-02T21:11:59.623Z,59
2019-05-02T21:17:17.499Z,60
2019-05-02T21:22:34.169Z,61
2019-05-02T21:27:49.500Z,61
2019-05-02T21:33:05.138Z,61
2019-05-02T21:38:23.956Z,61
2019-05-02T21:43:38.520Z,61
2019-05-02T21:48:54.191Z,61
2019-05-02T21:54:06.513Z,62
2019-05-02T21:59:24.811Z,61
2019-05-02T22:04:43.640Z,62
2019-05-02T22:09:57.770Z,63
2019-05-02T22:15:16.160Z,63
2019-05-02T22:20:36.669Z,63
2019-05-02T22:25:55.931Z,63
2019-05-02T22:31:12.706Z,63
2019-05-02T22:36:27.215Z,64
2019-05-02T22:41:45.404Z,63
2019-05-02T22:47:00.305Z,65
2019-05-02T22:52:15.877Z,66
2019-05-02T23:02:43.270Z,66
2019-05-02T23:07:58.310Z,66
2019-05-02T23:18:33.664Z,66
2019-05-02T23:39:22.136Z,67
2019-05-02T23:44:38.024Z,67
2019-05-02T23:49:54.998Z,67
2019-05-02T23:55:12.035Z,69
